sensor_id;sensor_type;location;lat;lon;timestamp;temperature;humidity
29417;DHT22;28421;51.030;4.006;2022-08-21T00:00:32;15.90;99.90
29417;DHT22;28421;51.030;4.006;2022-08-21T00:03:04;15.90;99.90
29417;DHT22;28421;51.030;4.006;2022-08-21T00:05:32;15.90;99.90
29417;DHT22;28421;51.030;4.006;2022-08-21T00:07:58;15.90;99.90
29417;DHT22;28421;51.030;4.006;2022-08-21T00:10:24;15.90;99.90
29417;DHT22;28421;51.030;4.006;2022-08-21T00:12:50;15.90;99.90
29417;DHT22;28421;51.030;4.006;2022-08-21T00:15:20;15.90;99.90
29417;DHT22;28421;51.030;4.006;2022-08-21T00:17:46;15.80;99.90
29417;DHT22;28421;51.030;4.006;2022-08-21T00:20:13;15.80;99.90
29417;DHT22;28421;51.030;4.006;2022-08-21T00:22:40;15.80;99.90
29417;DHT22;28421;51.030;4.006;2022-08-21T00:25:07;15.70;99.90
29417;DHT22;28421;51.030;4.006;2022-08-21T00:27:33;15.70;99.90
29417;DHT22;28421;51.030;4.006;2022-08-21T00:29:59;15.80;99.90
29417;DHT22;28421;51.030;4.006;2022-08-21T00:32:26;15.60;99.90
29417;DHT22;28421;51.030;4.006;2022-08-21T00:34:52;15.60;99.90
29417;DHT22;28421;51.030;4.006;2022-08-21T00:37:18;15.60;99.90
29417;DHT22;28421;51.030;4.006;2022-08-21T00:39:44;15.60;99.90
29417;DHT22;28421;51.030;4.006;2022-08-21T00:42:11;15.50;99.90
29417;DHT22;28421;51.030;4.006;2022-08-21T00:44:45;15.60;99.90
29417;DHT22;28421;51.030;4.006;2022-08-21T00:47:12;15.50;99.90
29417;DHT22;28421;51.030;4.006;2022-08-21T00:49:38;15.40;99.90
29417;DHT22;28421;51.030;4.006;2022-08-21T00:52:07;15.40;99.90
29417;DHT22;28421;51.030;4.006;2022-08-21T00:54:33;15.40;99.90
29417;DHT22;28421;51.030;4.006;2022-08-21T00:57:05;15.40;99.90
29417;DHT22;28421;51.030;4.006;2022-08-21T00:59:35;15.30;99.90
29417;DHT22;28421;51.030;4.006;2022-08-21T01:02:05;15.30;99.90
29417;DHT22;28421;51.030;4.006;2022-08-21T01:06:58;15.20;99.90
29417;DHT22;28421;51.030;4.006;2022-08-21T01:09:25;15.20;99.90
29417;DHT22;28421;51.030;4.006;2022-08-21T01:11:50;15.20;99.90
29417;DHT22;28421;51.030;4.006;2022-08-21T01:14:17;15.00;99.90
29417;DHT22;28421;51.030;4.006;2022-08-21T01:16:47;14.90;99.90
29417;DHT22;28421;51.030;4.006;2022-08-21T01:19:13;14.80;99.90
29417;DHT22;28421;51.030;4.006;2022-08-21T01:21:40;14.80;99.90
29417;DHT22;28421;51.030;4.006;2022-08-21T01:24:06;14.70;99.90
29417;DHT22;28421;51.030;4.006;2022-08-21T01:26:33;14.80;99.90
29417;DHT22;28421;51.030;4.006;2022-08-21T01:31:53;14.80;99.90
29417;DHT22;28421;51.030;4.006;2022-08-21T01:34:19;14.80;99.90
29417;DHT22;28421;51.030;4.006;2022-08-21T01:36:45;14.80;99.90
29417;DHT22;28421;51.030;4.006;2022-08-21T01:39:12;14.80;99.90
29417;DHT22;28421;51.030;4.006;2022-08-21T01:41:38;14.70;99.90
29417;DHT22;28421;51.030;4.006;2022-08-21T01:44:04;14.80;99.90
29417;DHT22;28421;51.030;4.006;2022-08-21T01:46:30;14.70;99.90
29417;DHT22;28421;51.030;4.006;2022-08-21T01:48:56;14.70;99.90
29417;DHT22;28421;51.030;4.006;2022-08-21T01:51:22;14.70;99.90
29417;DHT22;28421;51.030;4.006;2022-08-21T01:53:48;14.70;99.90
29417;DHT22;28421;51.030;4.006;2022-08-21T01:56:15;14.70;99.90
29417;DHT22;28421;51.030;4.006;2022-08-21T01:58:43;14.80;99.90
29417;DHT22;28421;51.030;4.006;2022-08-21T02:01:09;14.70;99.90
29417;DHT22;28421;51.030;4.006;2022-08-21T02:03:36;14.70;99.90
29417;DHT22;28421;51.030;4.006;2022-08-21T02:06:03;14.70;99.90
29417;DHT22;28421;51.030;4.006;2022-08-21T02:08:29;14.70;99.90
29417;DHT22;28421;51.030;4.006;2022-08-21T02:10:55;14.70;99.90
29417;DHT22;28421;51.030;4.006;2022-08-21T02:13:21;14.70;99.90
29417;DHT22;28421;51.030;4.006;2022-08-21T02:15:46;14.60;99.90
29417;DHT22;28421;51.030;4.006;2022-08-21T02:18:12;14.60;99.90
29417;DHT22;28421;51.030;4.006;2022-08-21T02:20:42;14.70;99.90
29417;DHT22;28421;51.030;4.006;2022-08-21T02:23:10;14.70;99.90
29417;DHT22;28421;51.030;4.006;2022-08-21T02:25:37;14.70;99.90
29417;DHT22;28421;51.030;4.006;2022-08-21T02:28:06;14.70;99.90
29417;DHT22;28421;51.030;4.006;2022-08-21T02:30:35;14.70;99.90
29417;DHT22;28421;51.030;4.006;2022-08-21T02:33:03;14.70;99.90
29417;DHT22;28421;51.030;4.006;2022-08-21T02:35:30;14.80;99.90
29417;DHT22;28421;51.030;4.006;2022-08-21T02:38:02;14.70;99.90
29417;DHT22;28421;51.030;4.006;2022-08-21T02:40:31;14.70;99.90
29417;DHT22;28421;51.030;4.006;2022-08-21T02:43:02;14.70;99.90
29417;DHT22;28421;51.030;4.006;2022-08-21T02:45:30;14.80;99.90
29417;DHT22;28421;51.030;4.006;2022-08-21T02:48:02;14.70;99.90
29417;DHT22;28421;51.030;4.006;2022-08-21T02:50:33;14.70;99.90
29417;DHT22;28421;51.030;4.006;2022-08-21T02:53:00;14.70;99.90
29417;DHT22;28421;51.030;4.006;2022-08-21T02:55:29;14.60;99.90
29417;DHT22;28421;51.030;4.006;2022-08-21T02:57:57;14.60;99.90
29417;DHT22;28421;51.030;4.006;2022-08-21T03:00:25;14.60;99.90
29417;DHT22;28421;51.030;4.006;2022-08-21T03:02:51;14.70;99.90
29417;DHT22;28421;51.030;4.006;2022-08-21T03:05:18;14.60;99.90
29417;DHT22;28421;51.030;4.006;2022-08-21T03:07:45;14.70;99.90
29417;DHT22;28421;51.030;4.006;2022-08-21T03:10:12;14.80;99.90
29417;DHT22;28421;51.030;4.006;2022-08-21T03:12:37;14.70;99.90
29417;DHT22;28421;51.030;4.006;2022-08-21T03:15:06;14.70;99.90
29417;DHT22;28421;51.030;4.006;2022-08-21T03:17:32;14.80;99.90
29417;DHT22;28421;51.030;4.006;2022-08-21T03:19:58;14.70;99.90
29417;DHT22;28421;51.030;4.006;2022-08-21T03:22:25;14.70;99.90
29417;DHT22;28421;51.030;4.006;2022-08-21T03:24:51;14.70;99.90
29417;DHT22;28421;51.030;4.006;2022-08-21T03:27:18;14.60;99.90
29417;DHT22;28421;51.030;4.006;2022-08-21T03:29:44;14.70;99.90
29417;DHT22;28421;51.030;4.006;2022-08-21T03:32:11;14.70;99.90
29417;DHT22;28421;51.030;4.006;2022-08-21T03:34:37;14.60;99.90
29417;DHT22;28421;51.030;4.006;2022-08-21T03:37:05;14.60;99.90
29417;DHT22;28421;51.030;4.006;2022-08-21T03:39:33;14.60;99.90
29417;DHT22;28421;51.030;4.006;2022-08-21T03:41:59;14.60;99.90
29417;DHT22;28421;51.030;4.006;2022-08-21T03:44:26;14.50;99.90
29417;DHT22;28421;51.030;4.006;2022-08-21T03:46:56;14.50;99.90
29417;DHT22;28421;51.030;4.006;2022-08-21T03:49:22;14.60;99.90
29417;DHT22;28421;51.030;4.006;2022-08-21T03:51:48;14.50;99.90
29417;DHT22;28421;51.030;4.006;2022-08-21T03:54:14;14.50;99.90
29417;DHT22;28421;51.030;4.006;2022-08-21T03:56:39;14.50;99.90
29417;DHT22;28421;51.030;4.006;2022-08-21T03:59:05;14.50;99.90
29417;DHT22;28421;51.030;4.006;2022-08-21T04:01:32;14.40;99.90
29417;DHT22;28421;51.030;4.006;2022-08-21T04:03:58;14.50;99.90
29417;DHT22;28421;51.030;4.006;2022-08-21T04:06:24;14.40;99.90
29417;DHT22;28421;51.030;4.006;2022-08-21T04:08:51;14.40;99.90
29417;DHT22;28421;51.030;4.006;2022-08-21T04:11:17;14.40;99.90
29417;DHT22;28421;51.030;4.006;2022-08-21T04:13:42;14.30;99.90
29417;DHT22;28421;51.030;4.006;2022-08-21T04:16:08;14.30;99.90
29417;DHT22;28421;51.030;4.006;2022-08-21T04:18:34;14.30;99.90
29417;DHT22;28421;51.030;4.006;2022-08-21T04:21:02;14.30;99.90
29417;DHT22;28421;51.030;4.006;2022-08-21T04:23:28;14.20;99.90
29417;DHT22;28421;51.030;4.006;2022-08-21T04:25:56;14.20;99.90
29417;DHT22;28421;51.030;4.006;2022-08-21T04:28:24;14.20;99.90
29417;DHT22;28421;51.030;4.006;2022-08-21T04:30:51;14.10;99.90
29417;DHT22;28421;51.030;4.006;2022-08-21T04:33:17;14.20;99.90
29417;DHT22;28421;51.030;4.006;2022-08-21T04:35:43;14.00;99.90
29417;DHT22;28421;51.030;4.006;2022-08-21T04:38:09;14.10;99.90
29417;DHT22;28421;51.030;4.006;2022-08-21T04:40:36;14.10;99.90
29417;DHT22;28421;51.030;4.006;2022-08-21T04:43:04;14.10;99.90
29417;DHT22;28421;51.030;4.006;2022-08-21T04:47:59;14.00;99.90
29417;DHT22;28421;51.030;4.006;2022-08-21T04:50:34;14.10;99.90
29417;DHT22;28421;51.030;4.006;2022-08-21T04:53:08;14.10;99.90
29417;DHT22;28421;51.030;4.006;2022-08-21T04:55:35;14.10;99.90
29417;DHT22;28421;51.030;4.006;2022-08-21T04:58:05;14.10;99.90
29417;DHT22;28421;51.030;4.006;2022-08-21T05:00:32;14.10;99.90
29417;DHT22;28421;51.030;4.006;2022-08-21T05:02:59;14.10;99.90
29417;DHT22;28421;51.030;4.006;2022-08-21T05:05:28;14.10;99.90
29417;DHT22;28421;51.030;4.006;2022-08-21T05:07:55;14.10;99.90
29417;DHT22;28421;51.030;4.006;2022-08-21T05:10:21;14.20;99.90
29417;DHT22;28421;51.030;4.006;2022-08-21T05:12:47;14.20;99.90
29417;DHT22;28421;51.030;4.006;2022-08-21T05:15:14;14.10;99.90
29417;DHT22;28421;51.030;4.006;2022-08-21T05:17:43;14.10;99.90
29417;DHT22;28421;51.030;4.006;2022-08-21T05:20:10;14.10;99.90
29417;DHT22;28421;51.030;4.006;2022-08-21T05:22:37;14.20;99.90
29417;DHT22;28421;51.030;4.006;2022-08-21T05:25:04;14.20;99.90
29417;DHT22;28421;51.030;4.006;2022-08-21T05:27:29;14.20;99.90
29417;DHT22;28421;51.030;4.006;2022-08-21T05:29:56;14.30;99.90
29417;DHT22;28421;51.030;4.006;2022-08-21T05:32:22;14.30;99.90
29417;DHT22;28421;51.030;4.006;2022-08-21T05:34:48;14.50;99.90
29417;DHT22;28421;51.030;4.006;2022-08-21T05:37:14;14.60;99.90
29417;DHT22;28421;51.030;4.006;2022-08-21T05:39:40;14.50;99.90
29417;DHT22;28421;51.030;4.006;2022-08-21T05:42:06;14.50;99.90
29417;DHT22;28421;51.030;4.006;2022-08-21T05:44:31;14.60;99.90
29417;DHT22;28421;51.030;4.006;2022-08-21T05:47:08;14.70;99.90
29417;DHT22;28421;51.030;4.006;2022-08-21T05:49:35;14.70;99.90
29417;DHT22;28421;51.030;4.006;2022-08-21T05:52:01;14.70;99.90
29417;DHT22;28421;51.030;4.006;2022-08-21T05:54:28;14.80;99.90
29417;DHT22;28421;51.030;4.006;2022-08-21T05:56:54;15.00;99.90
29417;DHT22;28421;51.030;4.006;2022-08-21T05:59:20;15.10;99.90
29417;DHT22;28421;51.030;4.006;2022-08-21T06:01:45;15.00;99.90
29417;DHT22;28421;51.030;4.006;2022-08-21T06:04:12;15.10;99.90
29417;DHT22;28421;51.030;4.006;2022-08-21T06:06:38;15.20;99.90
29417;DHT22;28421;51.030;4.006;2022-08-21T06:09:04;15.20;99.90
29417;DHT22;28421;51.030;4.006;2022-08-21T06:11:32;15.20;99.90
29417;DHT22;28421;51.030;4.006;2022-08-21T06:13:58;15.30;99.90
29417;DHT22;28421;51.030;4.006;2022-08-21T06:16:24;15.40;99.90
29417;DHT22;28421;51.030;4.006;2022-08-21T06:18:49;15.40;99.90
29417;DHT22;28421;51.030;4.006;2022-08-21T06:21:15;15.60;99.90
29417;DHT22;28421;51.030;4.006;2022-08-21T06:23:41;15.60;99.90
29417;DHT22;28421;51.030;4.006;2022-08-21T06:26:08;15.80;99.90
29417;DHT22;28421;51.030;4.006;2022-08-21T06:28:35;15.80;99.90
29417;DHT22;28421;51.030;4.006;2022-08-21T06:31:01;15.90;99.90
29417;DHT22;28421;51.030;4.006;2022-08-21T06:33:26;16.10;99.90
29417;DHT22;28421;51.030;4.006;2022-08-21T06:35:52;16.10;99.90
29417;DHT22;28421;51.030;4.006;2022-08-21T06:38:18;16.20;99.90
29417;DHT22;28421;51.030;4.006;2022-08-21T06:40:45;16.30;99.90
29417;DHT22;28421;51.030;4.006;2022-08-21T06:43:15;16.40;99.90
29417;DHT22;28421;51.030;4.006;2022-08-21T06:45:42;16.40;99.90
29417;DHT22;28421;51.030;4.006;2022-08-21T06:48:08;16.50;99.90
29417;DHT22;28421;51.030;4.006;2022-08-21T06:50:34;16.60;99.90
29417;DHT22;28421;51.030;4.006;2022-08-21T06:53:05;16.60;99.90
29417;DHT22;28421;51.030;4.006;2022-08-21T06:55:32;16.70;99.90
29417;DHT22;28421;51.030;4.006;2022-08-21T06:57:58;16.80;99.90
29417;DHT22;28421;51.030;4.006;2022-08-21T07:00:24;16.90;99.90
29417;DHT22;28421;51.030;4.006;2022-08-21T07:02:50;17.10;99.90
29417;DHT22;28421;51.030;4.006;2022-08-21T07:05:16;17.20;99.90
29417;DHT22;28421;51.030;4.006;2022-08-21T07:07:42;17.30;99.90
29417;DHT22;28421;51.030;4.006;2022-08-21T07:10:08;17.40;99.90
29417;DHT22;28421;51.030;4.006;2022-08-21T07:12:34;17.60;99.90
29417;DHT22;28421;51.030;4.006;2022-08-21T07:15:00;17.70;99.90
29417;DHT22;28421;51.030;4.006;2022-08-21T07:17:25;17.70;99.90
29417;DHT22;28421;51.030;4.006;2022-08-21T07:19:51;17.90;99.90
29417;DHT22;28421;51.030;4.006;2022-08-21T07:22:19;18.00;99.90
29417;DHT22;28421;51.030;4.006;2022-08-21T07:24:46;18.20;99.90
29417;DHT22;28421;51.030;4.006;2022-08-21T07:27:12;18.40;99.90
29417;DHT22;28421;51.030;4.006;2022-08-21T07:29:38;18.50;99.90
29417;DHT22;28421;51.030;4.006;2022-08-21T07:32:04;18.60;99.90
29417;DHT22;28421;51.030;4.006;2022-08-21T07:34:30;18.70;99.90
29417;DHT22;28421;51.030;4.006;2022-08-21T07:36:57;18.80;99.90
29417;DHT22;28421;51.030;4.006;2022-08-21T07:39:24;19.00;99.90
29417;DHT22;28421;51.030;4.006;2022-08-21T07:41:49;19.10;99.90
29417;DHT22;28421;51.030;4.006;2022-08-21T07:44:15;19.30;99.90
29417;DHT22;28421;51.030;4.006;2022-08-21T07:46:41;19.70;99.90
29417;DHT22;28421;51.030;4.006;2022-08-21T07:49:07;19.30;99.90
29417;DHT22;28421;51.030;4.006;2022-08-21T07:51:32;19.50;99.90
29417;DHT22;28421;51.030;4.006;2022-08-21T07:53:59;19.50;99.90
29417;DHT22;28421;51.030;4.006;2022-08-21T07:56:26;19.60;99.90
29417;DHT22;28421;51.030;4.006;2022-08-21T07:58:51;19.50;99.90
29417;DHT22;28421;51.030;4.006;2022-08-21T08:01:18;19.60;99.90
29417;DHT22;28421;51.030;4.006;2022-08-21T08:03:44;19.70;99.90
29417;DHT22;28421;51.030;4.006;2022-08-21T08:06:11;19.70;99.90
29417;DHT22;28421;51.030;4.006;2022-08-21T08:08:41;19.70;99.90
29417;DHT22;28421;51.030;4.006;2022-08-21T08:11:09;19.70;99.90
29417;DHT22;28421;51.030;4.006;2022-08-21T08:13:42;19.80;99.90
29417;DHT22;28421;51.030;4.006;2022-08-21T08:16:08;20.00;99.90
29417;DHT22;28421;51.030;4.006;2022-08-21T08:18:34;20.20;99.90
29417;DHT22;28421;51.030;4.006;2022-08-21T08:23:26;20.40;99.90
29417;DHT22;28421;51.030;4.006;2022-08-21T08:25:52;20.30;99.90
29417;DHT22;28421;51.030;4.006;2022-08-21T08:30:45;20.80;99.90
29417;DHT22;28421;51.030;4.006;2022-08-21T08:33:11;20.60;99.90
29417;DHT22;28421;51.030;4.006;2022-08-21T08:35:37;20.20;99.90
29417;DHT22;28421;51.030;4.006;2022-08-21T08:38:03;20.50;99.90
29417;DHT22;28421;51.030;4.006;2022-08-21T08:40:37;20.60;99.90
29417;DHT22;28421;51.030;4.006;2022-08-21T08:43:05;20.40;99.90
29417;DHT22;28421;51.030;4.006;2022-08-21T08:45:34;20.40;99.90
29417;DHT22;28421;51.030;4.006;2022-08-21T08:48:05;20.60;99.90
29417;DHT22;28421;51.030;4.006;2022-08-21T08:53:27;21.10;99.90
29417;DHT22;28421;51.030;4.006;2022-08-21T08:55:54;21.50;99.90
29417;DHT22;28421;51.030;4.006;2022-08-21T08:58:31;21.50;99.90
29417;DHT22;28421;51.030;4.006;2022-08-21T09:00:59;21.60;99.90
29417;DHT22;28421;51.030;4.006;2022-08-21T09:03:27;21.70;99.90
29417;DHT22;28421;51.030;4.006;2022-08-21T09:11:30;21.10;99.90
29417;DHT22;28421;51.030;4.006;2022-08-21T09:20:37;21.20;99.90
29417;DHT22;28421;51.030;4.006;2022-08-21T09:22:59;21.80;99.90
29417;DHT22;28421;51.030;4.006;2022-08-21T09:26:00;22.00;99.90
29417;DHT22;28421;51.030;4.006;2022-08-21T09:28:23;22.30;99.90
29417;DHT22;28421;51.030;4.006;2022-08-21T09:30:50;21.60;99.90
29417;DHT22;28421;51.030;4.006;2022-08-21T09:33:17;21.20;99.90
29417;DHT22;28421;51.030;4.006;2022-08-21T09:35:54;21.40;99.90
29417;DHT22;28421;51.030;4.006;2022-08-21T09:38:35;21.50;99.90
29417;DHT22;28421;51.030;4.006;2022-08-21T09:41:09;21.80;99.90
29417;DHT22;28421;51.030;4.006;2022-08-21T09:43:36;21.70;99.90
29417;DHT22;28421;51.030;4.006;2022-08-21T09:48:56;22.20;99.90
29417;DHT22;28421;51.030;4.006;2022-08-21T09:51:34;22.10;99.90
29417;DHT22;28421;51.030;4.006;2022-08-21T09:54:14;21.70;99.90
29417;DHT22;28421;51.030;4.006;2022-08-21T09:57:14;22.00;99.90
29417;DHT22;28421;51.030;4.006;2022-08-21T10:02:52;22.70;99.90
29417;DHT22;28421;51.030;4.006;2022-08-21T10:07:45;23.40;99.90
29417;DHT22;28421;51.030;4.006;2022-08-21T10:10:16;23.10;99.90
29417;DHT22;28421;51.030;4.006;2022-08-21T10:13:21;23.50;99.90
29417;DHT22;28421;51.030;4.006;2022-08-21T10:16:13;23.50;99.90
29417;DHT22;28421;51.030;4.006;2022-08-21T10:18:49;23.30;99.90
29417;DHT22;28421;51.030;4.006;2022-08-21T10:21:27;23.50;99.90
29417;DHT22;28421;51.030;4.006;2022-08-21T10:24:06;23.60;99.90
29417;DHT22;28421;51.030;4.006;2022-08-21T10:27:01;23.70;99.90
29417;DHT22;28421;51.030;4.006;2022-08-21T10:32:40;22.80;99.90
29417;DHT22;28421;51.030;4.006;2022-08-21T10:35:27;23.10;99.90
29417;DHT22;28421;51.030;4.006;2022-08-21T10:40:42;23.30;99.90
29417;DHT22;28421;51.030;4.006;2022-08-21T10:43:31;23.50;99.90
29417;DHT22;28421;51.030;4.006;2022-08-21T10:46:02;23.70;99.90
29417;DHT22;28421;51.030;4.006;2022-08-21T10:48:37;24.20;99.90
29417;DHT22;28421;51.030;4.006;2022-08-21T10:51:28;24.70;99.90
29417;DHT22;28421;51.030;4.006;2022-08-21T10:54:05;23.50;99.90
29417;DHT22;28421;51.030;4.006;2022-08-21T10:56:34;23.90;99.90
29417;DHT22;28421;51.030;4.006;2022-08-21T11:01:50;23.90;99.90
29417;DHT22;28421;51.030;4.006;2022-08-21T11:04:33;24.30;99.90
29417;DHT22;28421;51.030;4.006;2022-08-21T11:07:07;23.60;99.90
29417;DHT22;28421;51.030;4.006;2022-08-21T11:09:39;23.20;99.90
29417;DHT22;28421;51.030;4.006;2022-08-21T11:14:52;23.50;99.90
29417;DHT22;28421;51.030;4.006;2022-08-21T11:17:28;23.40;99.90
29417;DHT22;28421;51.030;4.006;2022-08-21T11:20:08;23.40;99.90
29417;DHT22;28421;51.030;4.006;2022-08-21T11:23:00;23.30;99.90
29417;DHT22;28421;51.030;4.006;2022-08-21T11:25:41;23.70;99.90
29417;DHT22;28421;51.030;4.006;2022-08-21T11:31:34;23.20;99.90
29417;DHT22;28421;51.030;4.006;2022-08-21T11:34:19;23.20;99.90
29417;DHT22;28421;51.030;4.006;2022-08-21T11:40:04;23.30;99.90
29417;DHT22;28421;51.030;4.006;2022-08-21T11:42:59;23.00;99.90
29417;DHT22;28421;51.030;4.006;2022-08-21T11:45:49;23.10;99.90
29417;DHT22;28421;51.030;4.006;2022-08-21T11:50:48;23.30;99.90
29417;DHT22;28421;51.030;4.006;2022-08-21T11:53:23;23.40;99.90
29417;DHT22;28421;51.030;4.006;2022-08-21T11:56:12;23.40;99.90
29417;DHT22;28421;51.030;4.006;2022-08-21T11:58:50;23.40;99.90
29417;DHT22;28421;51.030;4.006;2022-08-21T12:01:20;23.60;99.90
29417;DHT22;28421;51.030;4.006;2022-08-21T12:03:58;23.50;99.90
29417;DHT22;28421;51.030;4.006;2022-08-21T12:06:31;23.40;99.90
29417;DHT22;28421;51.030;4.006;2022-08-21T12:09:04;23.40;99.90
29417;DHT22;28421;51.030;4.006;2022-08-21T12:11:30;23.30;99.90
29417;DHT22;28421;51.030;4.006;2022-08-21T12:13:59;23.50;99.90
29417;DHT22;28421;51.030;4.006;2022-08-21T12:16:43;24.30;99.90
29417;DHT22;28421;51.030;4.006;2022-08-21T12:27:13;23.90;99.90
29417;DHT22;28421;51.030;4.006;2022-08-21T12:30:01;24.10;99.70
29417;DHT22;28421;51.030;4.006;2022-08-21T12:32:45;24.20;99.80
29417;DHT22;28421;51.030;4.006;2022-08-21T12:35:21;24.50;99.90
29417;DHT22;28421;51.030;4.006;2022-08-21T12:38:02;24.50;99.90
29417;DHT22;28421;51.030;4.006;2022-08-21T12:40:39;24.70;99.40
29417;DHT22;28421;51.030;4.006;2022-08-21T12:43:11;24.90;99.40
29417;DHT22;28421;51.030;4.006;2022-08-21T12:45:43;24.60;98.60
29417;DHT22;28421;51.030;4.006;2022-08-21T12:48:39;24.30;99.50
29417;DHT22;28421;51.030;4.006;2022-08-21T12:51:18;24.20;99.80
29417;DHT22;28421;51.030;4.006;2022-08-21T12:53:58;23.90;99.90
29417;DHT22;28421;51.030;4.006;2022-08-21T12:56:33;23.60;99.90
29417;DHT22;28421;51.030;4.006;2022-08-21T12:59:10;23.80;99.90
29417;DHT22;28421;51.030;4.006;2022-08-21T13:01:43;24.10;99.90
29417;DHT22;28421;51.030;4.006;2022-08-21T13:04:16;24.20;99.90
29417;DHT22;28421;51.030;4.006;2022-08-21T13:06:45;24.20;99.80
29417;DHT22;28421;51.030;4.006;2022-08-21T13:09:15;23.90;99.80
29417;DHT22;28421;51.030;4.006;2022-08-21T13:11:42;24.20;99.70
29417;DHT22;28421;51.030;4.006;2022-08-21T13:14:36;24.50;99.50
29417;DHT22;28421;51.030;4.006;2022-08-21T13:17:03;24.80;98.30
29417;DHT22;28421;51.030;4.006;2022-08-21T13:19:29;24.60;98.80
29417;DHT22;28421;51.030;4.006;2022-08-21T13:21:55;24.70;99.20
29417;DHT22;28421;51.030;4.006;2022-08-21T13:24:32;24.90;99.30
29417;DHT22;28421;51.030;4.006;2022-08-21T13:26:58;25.20;97.90
29417;DHT22;28421;51.030;4.006;2022-08-21T13:29:32;25.50;98.20
29417;DHT22;28421;51.030;4.006;2022-08-21T13:32:02;26.00;98.00
29417;DHT22;28421;51.030;4.006;2022-08-21T13:34:36;25.70;97.70
29417;DHT22;28421;51.030;4.006;2022-08-21T13:37:07;25.90;97.20
29417;DHT22;28421;51.030;4.006;2022-08-21T13:39:34;26.50;97.40
29417;DHT22;28421;51.030;4.006;2022-08-21T13:42:02;25.70;96.30
29417;DHT22;28421;51.030;4.006;2022-08-21T13:46:59;25.10;97.30
29417;DHT22;28421;51.030;4.006;2022-08-21T13:49:30;25.40;97.80
29417;DHT22;28421;51.030;4.006;2022-08-21T13:51:57;25.60;97.80
29417;DHT22;28421;51.030;4.006;2022-08-21T13:54:26;26.00;97.60
29417;DHT22;28421;51.030;4.006;2022-08-21T13:56:53;25.70;97.60
29417;DHT22;28421;51.030;4.006;2022-08-21T13:59:34;25.90;96.80
29417;DHT22;28421;51.030;4.006;2022-08-21T14:02:18;25.40;96.70
29417;DHT22;28421;51.030;4.006;2022-08-21T14:07:24;24.80;97.90
29417;DHT22;28421;51.030;4.006;2022-08-21T14:09:51;25.10;97.80
29417;DHT22;28421;51.030;4.006;2022-08-21T14:12:37;24.90;97.60
29417;DHT22;28421;51.030;4.006;2022-08-21T14:15:05;25.10;97.70
29417;DHT22;28421;51.030;4.006;2022-08-21T14:17:34;25.00;97.70
29417;DHT22;28421;51.030;4.006;2022-08-21T14:20:02;25.30;97.50
29417;DHT22;28421;51.030;4.006;2022-08-21T14:22:42;25.30;97.10
29417;DHT22;28421;51.030;4.006;2022-08-21T14:27:44;25.60;97.60
29417;DHT22;28421;51.030;4.006;2022-08-21T14:30:36;25.40;97.50
29417;DHT22;28421;51.030;4.006;2022-08-21T14:33:04;25.20;97.20
29417;DHT22;28421;51.030;4.006;2022-08-21T14:35:33;25.10;97.20
29417;DHT22;28421;51.030;4.006;2022-08-21T14:37:58;25.10;97.60
29417;DHT22;28421;51.030;4.006;2022-08-21T14:40:25;25.20;97.90
29417;DHT22;28421;51.030;4.006;2022-08-21T14:42:51;25.40;97.90
29417;DHT22;28421;51.030;4.006;2022-08-21T14:45:19;25.40;97.80
29417;DHT22;28421;51.030;4.006;2022-08-21T14:47:47;25.40;96.90
29417;DHT22;28421;51.030;4.006;2022-08-21T14:50:13;25.40;96.50
29417;DHT22;28421;51.030;4.006;2022-08-21T14:52:40;25.00;97.20
29417;DHT22;28421;51.030;4.006;2022-08-21T14:55:07;24.90;97.30
29417;DHT22;28421;51.030;4.006;2022-08-21T14:57:33;24.90;98.00
29417;DHT22;28421;51.030;4.006;2022-08-21T15:00:00;25.30;98.00
29417;DHT22;28421;51.030;4.006;2022-08-21T15:02:26;25.40;97.40
29417;DHT22;28421;51.030;4.006;2022-08-21T15:04:52;25.40;97.40
29417;DHT22;28421;51.030;4.006;2022-08-21T15:07:17;25.30;97.50
29417;DHT22;28421;51.030;4.006;2022-08-21T15:09:43;25.30;98.00
29417;DHT22;28421;51.030;4.006;2022-08-21T15:12:09;25.10;97.90
29417;DHT22;28421;51.030;4.006;2022-08-21T15:14:38;24.80;98.10
29417;DHT22;28421;51.030;4.006;2022-08-21T15:17:06;24.40;98.40
29417;DHT22;28421;51.030;4.006;2022-08-21T15:19:32;24.20;98.70
29417;DHT22;28421;51.030;4.006;2022-08-21T15:21:58;24.40;98.40
29417;DHT22;28421;51.030;4.006;2022-08-21T15:24:25;24.30;98.30
29417;DHT22;28421;51.030;4.006;2022-08-21T15:26:51;24.40;97.90
29417;DHT22;28421;51.030;4.006;2022-08-21T15:29:18;24.20;98.50
29417;DHT22;28421;51.030;4.006;2022-08-21T15:31:56;24.00;98.70
29417;DHT22;28421;51.030;4.006;2022-08-21T15:34:22;24.40;98.80
29417;DHT22;28421;51.030;4.006;2022-08-21T15:36:48;24.40;98.50
29417;DHT22;28421;51.030;4.006;2022-08-21T15:39:14;24.40;99.00
29417;DHT22;28421;51.030;4.006;2022-08-21T15:41:40;24.40;98.80
29417;DHT22;28421;51.030;4.006;2022-08-21T15:44:08;24.70;98.40
29417;DHT22;28421;51.030;4.006;2022-08-21T15:46:34;24.50;98.20
29417;DHT22;28421;51.030;4.006;2022-08-21T15:49:01;24.40;98.10
29417;DHT22;28421;51.030;4.006;2022-08-21T15:51:27;24.60;98.50
29417;DHT22;28421;51.030;4.006;2022-08-21T15:53:53;24.70;98.70
29417;DHT22;28421;51.030;4.006;2022-08-21T15:56:26;24.60;99.30
29417;DHT22;28421;51.030;4.006;2022-08-21T15:58:57;24.70;99.10
29417;DHT22;28421;51.030;4.006;2022-08-21T16:01:24;24.60;99.30
29417;DHT22;28421;51.030;4.006;2022-08-21T16:03:52;24.70;99.20
29417;DHT22;28421;51.030;4.006;2022-08-21T16:06:19;24.50;99.00
29417;DHT22;28421;51.030;4.006;2022-08-21T16:08:45;24.60;99.10
29417;DHT22;28421;51.030;4.006;2022-08-21T16:11:13;24.80;98.90
29417;DHT22;28421;51.030;4.006;2022-08-21T16:13:42;24.30;99.20
29417;DHT22;28421;51.030;4.006;2022-08-21T16:16:14;24.60;99.30
29417;DHT22;28421;51.030;4.006;2022-08-21T16:18:40;25.40;99.90
29417;DHT22;28421;51.030;4.006;2022-08-21T16:21:06;25.20;98.40
29417;DHT22;28421;51.030;4.006;2022-08-21T16:23:33;25.50;98.20
29417;DHT22;28421;51.030;4.006;2022-08-21T16:26:03;25.20;98.00
29417;DHT22;28421;51.030;4.006;2022-08-21T16:28:31;25.30;98.10
29417;DHT22;28421;51.030;4.006;2022-08-21T16:30:58;24.30;99.00
29417;DHT22;28421;51.030;4.006;2022-08-21T16:33:31;24.30;98.90
29417;DHT22;28421;51.030;4.006;2022-08-21T16:35:58;24.50;98.70
29417;DHT22;28421;51.030;4.006;2022-08-21T16:38:25;24.60;98.70
29417;DHT22;28421;51.030;4.006;2022-08-21T16:40:52;24.90;98.60
29417;DHT22;28421;51.030;4.006;2022-08-21T16:43:19;25.00;98.20
29417;DHT22;28421;51.030;4.006;2022-08-21T16:45:46;25.00;98.30
29417;DHT22;28421;51.030;4.006;2022-08-21T16:48:11;25.20;98.10
29417;DHT22;28421;51.030;4.006;2022-08-21T16:50:37;24.90;97.90
29417;DHT22;28421;51.030;4.006;2022-08-21T16:53:03;24.90;97.70
29417;DHT22;28421;51.030;4.006;2022-08-21T16:55:31;24.70;98.10